Time;durP1;ratioP1;P1;durP2;ratioP2;P2;SDS_P1;SDS_P2;PMS_P1;PMS_P2;Temp;Humidity;BMP_temperature;BMP_pressure;BME280_temperature;BME280_humidity;BME280_pressure;Samples;Min_cycle;Max_cycle;Signal;HPM_P1;HPM_P2
2023/04/24 00:02:03;;;;;;;0.60;0.60;;;;;;;;;;5072824;28;20233;-87
2023/04/24 00:04:32;;;;;;;0.60;0.60;;;;;;;;;;5072337;28;20251;-87
2023/04/24 00:07:01;;;;;;;0.57;0.57;;;;;;;;;;5072430;28;20207;-88
2023/04/24 00:09:29;;;;;;;0.60;0.60;;;;;;;;;;5072575;28;20201;-88
2023/04/24 00:11:57;;;;;;;0.57;0.57;;;;;;;;;;5070966;28;20270;-88
2023/04/24 00:14:26;;;;;;;0.60;0.60;;;;;;;;;;5072687;28;20240;-88
2023/04/24 00:16:54;;;;;;;0.50;0.50;;;;;;;;;;5072390;28;20197;-87
2023/04/24 00:19:24;;;;;;;0.60;0.60;;;;;;;;;;5071880;28;20202;-88
2023/04/24 00:21:53;;;;;;;0.50;0.50;;;;;;;;;;5072453;28;20229;-88
2023/04/24 00:24:22;;;;;;;0.60;0.60;;;;;;;;;;5072346;28;20196;-88
2023/04/24 00:26:50;;;;;;;0.60;0.60;;;;;;;;;;5071910;28;20217;-88
2023/04/24 00:29:19;;;;;;;0.60;0.60;;;;;;;;;;5072098;28;20265;-88
2023/04/24 00:31:47;;;;;;;0.60;0.60;;;;;;;;;;5071969;28;20321;-88
2023/04/24 00:34:16;;;;;;;0.60;0.60;;;;;;;;;;5071963;28;20212;-88
2023/04/24 00:36:45;;;;;;;0.60;0.60;;;;;;;;;;5072215;28;20259;-88
2023/04/24 00:39:14;;;;;;;0.60;0.60;;;;;;;;;;5072275;28;20202;-88
2023/04/24 00:41:42;;;;;;;0.60;0.60;;;;;;;;;;5071732;28;20220;-88
2023/04/24 00:44:11;;;;;;;0.60;0.60;;;;;;;;;;5071705;28;20228;-88
2023/04/24 00:46:39;;;;;;;0.60;0.60;;;;;;;;;;5072178;28;20264;-88
2023/04/24 00:49:08;;;;;;;0.50;0.50;;;;;;;;;;5071900;28;20280;-88
2023/04/24 00:51:37;;;;;;;0.60;0.60;;;;;;;;;;5071791;28;20298;-87
2023/04/24 00:54:07;;;;;;;0.57;0.57;;;;;;;;;;5072122;28;20232;-87
2023/04/24 00:56:35;;;;;;;0.60;0.60;;;;;;;;;;5071656;28;20269;-87
2023/04/24 00:59:04;;;;;;;0.60;0.60;;;;;;;;;;5071437;28;20205;-87
2023/04/24 01:01:33;;;;;;;0.50;0.50;;;;;;;;;;5072007;28;20197;-88
2023/04/24 01:04:02;;;;;;;0.50;0.50;;;;;;;;;;5071656;28;20204;-87
2023/04/24 01:06:31;;;;;;;0.50;0.50;;;;;;;;;;5071393;28;20197;-88
2023/04/24 01:09:00;;;;;;;0.60;0.60;;;;;;;;;;5071769;28;20300;-88
2023/04/24 01:11:31;;;;;;;0.60;0.60;;;;;;;;;;5071151;28;20270;-88
2023/04/24 01:14:00;;;;;;;0.50;0.50;;;;;;;;;;5071724;28;20202;-88
2023/04/24 01:16:28;;;;;;;0.60;0.60;;;;;;;;;;5071769;28;20231;-88
2023/04/24 01:18:57;;;;;;;0.60;0.60;;;;;;;;;;5071554;28;20270;-88
2023/04/24 01:21:28;;;;;;;0.50;0.50;;;;;;;;;;5071477;28;20232;-88
2023/04/24 01:23:58;;;;;;;0.50;0.50;;;;;;;;;;5074958;28;20205;-87
2023/04/24 01:26:26;;;;;;;0.57;0.57;;;;;;;;;;5075624;28;20206;-87
2023/04/24 01:28:55;;;;;;;0.60;0.60;;;;;;;;;;5075573;28;20250;-87
2023/04/24 01:31:23;;;;;;;0.60;0.60;;;;;;;;;;5075478;28;20252;-87
2023/04/24 01:33:52;;;;;;;0.60;0.60;;;;;;;;;;5075712;28;20229;-87
2023/04/24 01:36:21;;;;;;;1.00;1.00;;;;;;;;;;5075301;28;20261;-87
2023/04/24 01:38:51;;;;;;;0.60;0.60;;;;;;;;;;5075142;28;20229;-88
2023/04/24 01:41:21;;;;;;;0.60;0.60;;;;;;;;;;5075366;28;20204;-87
2023/04/24 01:43:50;;;;;;;0.60;0.60;;;;;;;;;;5075326;28;20300;-87
2023/04/24 01:46:19;;;;;;;0.60;0.60;;;;;;;;;;5075047;28;20297;-87
2023/04/24 01:48:47;;;;;;;0.60;0.60;;;;;;;;;;5075041;28;20209;-87
2023/04/24 01:51:15;;;;;;;0.60;0.60;;;;;;;;;;5075204;28;20217;-87
2023/04/24 01:53:44;;;;;;;0.60;0.60;;;;;;;;;;5074819;28;20232;-88
2023/04/24 01:56:13;;;;;;;0.60;0.60;;;;;;;;;;5074902;28;20285;-87
2023/04/24 01:58:42;;;;;;;0.50;0.50;;;;;;;;;;5074853;28;20230;-88
2023/04/24 02:01:16;;;;;;;0.60;0.60;;;;;;;;;;5075009;28;20282;-88
2023/04/24 02:03:45;;;;;;;0.60;0.60;;;;;;;;;;5074596;28;20209;-87
2023/04/24 02:06:13;;;;;;;0.60;0.60;;;;;;;;;;5075404;28;20207;-87
2023/04/24 02:08:42;;;;;;;0.60;0.60;;;;;;;;;;5074810;28;20269;-87
2023/04/24 02:11:10;;;;;;;0.60;0.60;;;;;;;;;;5075073;28;20229;-86
2023/04/24 02:13:39;;;;;;;0.50;0.50;;;;;;;;;;5074654;28;20232;-87
2023/04/24 02:16:09;;;;;;;0.60;0.60;;;;;;;;;;5074354;28;20250;-87
2023/04/24 02:18:37;;;;;;;0.60;0.60;;;;;;;;;;5074529;28;20212;-87
2023/04/24 02:21:06;;;;;;;0.60;0.60;;;;;;;;;;5074933;28;20233;-87
2023/04/24 02:23:34;;;;;;;0.60;0.60;;;;;;;;;;5074363;28;20205;-87
2023/04/24 02:26:03;;;;;;;0.60;0.60;;;;;;;;;;5074406;28;20205;-87
2023/04/24 02:28:31;;;;;;;0.60;0.60;;;;;;;;;;5074210;28;20217;-87
2023/04/24 02:31:00;;;;;;;0.60;0.60;;;;;;;;;;5074622;28;20296;-87
2023/04/24 02:33:30;;;;;;;0.60;0.60;;;;;;;;;;5073195;28;20285;-87
2023/04/24 02:35:59;;;;;;;0.60;0.60;;;;;;;;;;5074010;28;20204;-86
2023/04/24 02:38:27;;;;;;;0.60;0.60;;;;;;;;;;5074087;28;20269;-87
2023/04/24 02:40:56;;;;;;;0.60;0.60;;;;;;;;;;5074066;28;20203;-87
2023/04/24 02:43:24;;;;;;;0.60;0.60;;;;;;;;;;5074299;28;20289;-87
2023/04/24 02:45:53;;;;;;;0.60;0.60;;;;;;;;;;5074749;28;20207;-87
2023/04/24 02:48:21;;;;;;;0.60;0.60;;;;;;;;;;5073907;28;20197;-86
2023/04/24 02:50:51;;;;;;;0.60;0.60;;;;;;;;;;5074247;28;20238;-86
2023/04/24 02:53:19;;;;;;;0.60;0.60;;;;;;;;;;5073621;28;20224;-86
2023/04/24 02:55:48;;;;;;;0.60;0.60;;;;;;;;;;5074101;28;20284;-86
2023/04/24 02:58:17;;;;;;;0.60;0.60;;;;;;;;;;5074142;28;20301;-86
2023/04/24 03:00:45;;;;;;;0.60;0.60;;;;;;;;;;5074061;28;20201;-86
2023/04/24 03:03:13;;;;;;;0.60;0.60;;;;;;;;;;5073790;28;20230;-87
2023/04/24 03:05:42;;;;;;;0.60;0.60;;;;;;;;;;5073707;28;20205;-86
2023/04/24 03:08:12;;;;;;;0.57;0.57;;;;;;;;;;5073986;28;20209;-87
2023/04/24 03:10:41;;;;;;;0.60;0.60;;;;;;;;;;5073736;28;20298;-86
2023/04/24 03:13:09;;;;;;;0.60;0.60;;;;;;;;;;5073767;28;20218;-87
2023/04/24 03:15:37;;;;;;;0.60;0.60;;;;;;;;;;5073683;28;20235;-87
2023/04/24 03:18:06;;;;;;;0.60;0.60;;;;;;;;;;5073567;28;20204;-87
2023/04/24 03:20:36;;;;;;;0.60;0.60;;;;;;;;;;5073378;28;20255;-87
2023/04/24 03:23:05;;;;;;;0.60;0.60;;;;;;;;;;5073682;28;20197;-87
2023/04/24 03:25:34;;;;;;;0.60;0.60;;;;;;;;;;5073568;28;20194;-87
2023/04/24 03:28:03;;;;;;;0.50;0.50;;;;;;;;;;5073170;28;20232;-87
2023/04/24 03:30:31;;;;;;;0.60;0.60;;;;;;;;;;5073575;28;20281;-86
2023/04/24 03:33:00;;;;;;;0.53;0.53;;;;;;;;;;5073455;28;20222;-86
2023/04/24 03:35:28;;;;;;;0.60;0.60;;;;;;;;;;5072835;28;20197;-86
2023/04/24 03:37:57;;;;;;;0.60;0.60;;;;;;;;;;5073133;28;20196;-86
2023/04/24 03:40:25;;;;;;;0.60;0.60;;;;;;;;;;5073031;28;20224;-86
2023/04/24 03:42:55;;;;;;;0.60;0.60;;;;;;;;;;5073003;28;20234;-87
2023/04/24 03:45:24;;;;;;;0.60;0.60;;;;;;;;;;5072643;28;20208;-86
2023/04/24 03:47:52;;;;;;;0.60;0.60;;;;;;;;;;5073288;28;20205;-87
2023/04/24 03:50:21;;;;;;;0.60;0.60;;;;;;;;;;5072956;28;20204;-87
2023/04/24 03:52:49;;;;;;;0.70;0.70;;;;;;;;;;5072791;28;20222;-86
2023/04/24 03:55:18;;;;;;;0.50;0.50;;;;;;;;;;5072764;28;20204;-86
2023/04/24 03:57:46;;;;;;;0.63;0.63;;;;;;;;;;5073086;28;20208;-87
2023/04/24 04:00:16;;;;;;;0.70;0.70;;;;;;;;;;5072749;28;20206;-86
2023/04/24 04:02:45;;;;;;;0.60;0.60;;;;;;;;;;5072973;28;20192;-87
2023/04/24 04:05:13;;;;;;;0.60;0.60;;;;;;;;;;5072709;28;20225;-87
2023/04/24 04:07:42;;;;;;;0.60;0.60;;;;;;;;;;5072337;28;20196;-87
2023/04/24 04:10:10;;;;;;;0.50;0.50;;;;;;;;;;5072633;28;20204;-86
2023/04/24 04:12:38;;;;;;;0.60;0.60;;;;;;;;;;5072354;28;20271;-87
2023/04/24 04:15:07;;;;;;;0.60;0.60;;;;;;;;;;5072272;28;20205;-86
2023/04/24 04:17:38;;;;;;;0.60;0.60;;;;;;;;;;5072918;28;20314;-86
2023/04/24 04:20:09;;;;;;;0.60;0.60;;;;;;;;;;5072483;28;20232;-87
2023/04/24 04:22:38;;;;;;;0.50;0.50;;;;;;;;;;5072268;28;20232;-86
2023/04/24 04:25:08;;;;;;;0.60;0.60;;;;;;;;;;5071963;28;20208;-86
2023/04/24 04:27:36;;;;;;;0.60;0.60;;;;;;;;;;5072234;28;20250;-86
2023/04/24 04:30:08;;;;;;;0.60;0.60;;;;;;;;;;5071767;28;20292;-87
2023/04/24 04:32:38;;;;;;;0.60;0.60;;;;;;;;;;5071552;28;20227;-87
2023/04/24 04:35:07;;;;;;;0.60;0.60;;;;;;;;;;5071988;28;20201;-87
2023/04/24 04:37:35;;;;;;;0.60;0.60;;;;;;;;;;5072330;28;20216;-87
2023/04/24 04:40:06;;;;;;;0.60;0.60;;;;;;;;;;5072061;28;20279;-87
2023/04/24 04:42:35;;;;;;;0.50;0.50;;;;;;;;;;5071826;28;20243;-87
2023/04/24 04:45:04;;;;;;;0.60;0.60;;;;;;;;;;5071632;28;20295;-87
2023/04/24 04:47:32;;;;;;;0.70;0.70;;;;;;;;;;5071590;28;20259;-87
2023/04/24 04:50:03;;;;;;;0.60;0.60;;;;;;;;;;5071919;28;20261;-87
2023/04/24 04:52:32;;;;;;;0.50;0.50;;;;;;;;;;5071933;28;20238;-87
2023/04/24 04:55:00;;;;;;;0.53;0.53;;;;;;;;;;5071919;28;20303;-87
2023/04/24 04:57:30;;;;;;;0.60;0.60;;;;;;;;;;5071007;28;20229;-87
2023/04/24 04:59:58;;;;;;;0.60;0.60;;;;;;;;;;5071709;28;20190;-87
2023/04/24 05:02:26;;;;;;;0.60;0.60;;;;;;;;;;5072012;28;20199;-87
2023/04/24 05:04:55;;;;;;;0.60;0.60;;;;;;;;;;5071744;28;20194;-87
2023/04/24 05:07:25;;;;;;;0.70;0.70;;;;;;;;;;5072301;28;20272;-87
2023/04/24 05:09:54;;;;;;;0.60;0.60;;;;;;;;;;5071205;28;20196;-87
2023/04/24 05:12:22;;;;;;;0.70;0.70;;;;;;;;;;5071731;28;20203;-87
2023/04/24 05:14:50;;;;;;;0.60;0.60;;;;;;;;;;5071865;28;20280;-85
2023/04/24 05:17:19;;;;;;;0.63;0.63;;;;;;;;;;5071379;28;20199;-85
2023/04/24 05:19:47;;;;;;;0.70;0.70;;;;;;;;;;5071625;28;20218;-85
2023/04/24 05:22:18;;;;;;;1.17;1.17;;;;;;;;;;5072228;28;20271;-86
2023/04/24 05:24:50;;;;;;;0.70;0.70;;;;;;;;;;5071460;28;20252;-86
2023/04/24 05:27:18;;;;;;;1.10;1.10;;;;;;;;;;5072169;28;20226;-85
2023/04/24 05:29:47;;;;;;;0.70;0.70;;;;;;;;;;5071758;28;20250;-86
2023/04/24 05:32:15;;;;;;;0.63;0.63;;;;;;;;;;5071126;28;20267;-86
2023/04/24 05:34:43;;;;;;;0.60;0.60;;;;;;;;;;5071943;28;20281;-86
2023/04/24 05:37:12;;;;;;;0.70;0.70;;;;;;;;;;5071680;28;20204;-87
2023/04/24 05:39:41;;;;;;;0.60;0.60;;;;;;;;;;5071001;28;20238;-87
2023/04/24 05:42:11;;;;;;;1.07;1.07;;;;;;;;;;5071443;28;20200;-85
2023/04/24 05:44:40;;;;;;;0.67;0.67;;;;;;;;;;5071125;28;20196;-85
2023/04/24 05:47:08;;;;;;;0.70;0.70;;;;;;;;;;5070623;28;20208;-85
2023/04/24 05:49:36;;;;;;;0.70;0.70;;;;;;;;;;5071308;28;20248;-86
2023/04/24 05:52:06;;;;;;;0.70;0.70;;;;;;;;;;5071911;28;20294;-85
2023/04/24 05:54:34;;;;;;;0.63;0.63;;;;;;;;;;5072263;28;20242;-86
2023/04/24 05:57:07;;;;;;;0.80;0.80;;;;;;;;;;5071064;28;20233;-86
2023/04/24 05:59:38;;;;;;;0.70;0.70;;;;;;;;;;5072461;28;20291;-86
2023/04/24 06:02:06;;;;;;;0.60;0.60;;;;;;;;;;5071689;28;20192;-86
2023/04/24 06:04:35;;;;;;;0.60;0.60;;;;;;;;;;5071661;28;20214;-86
2023/04/24 06:07:04;;;;;;;0.60;0.60;;;;;;;;;;5071820;28;20203;-85
2023/04/24 06:09:32;;;;;;;0.70;0.70;;;;;;;;;;5074684;28;20206;-85
2023/04/24 06:12:00;;;;;;;22.90;13.83;;;;;;;;;;5075591;28;20294;-85
2023/04/24 06:14:29;;;;;;;28.93;15.17;;;;;;;;;;5074972;28;20303;-85
2023/04/24 06:16:59;;;;;;;0.60;0.60;;;;;;;;;;5075557;28;20206;-85
2023/04/24 06:19:27;;;;;;;0.60;0.60;;;;;;;;;;5074866;28;20220;-85
2023/04/24 06:21:56;;;;;;;0.80;0.80;;;;;;;;;;5075049;28;20202;-86
2023/04/24 06:24:28;;;;;;;0.60;0.60;;;;;;;;;;5074917;28;20231;-85
2023/04/24 06:26:58;;;;;;;0.70;0.70;;;;;;;;;;5074746;28;20230;-85
2023/04/24 06:29:27;;;;;;;0.60;0.60;;;;;;;;;;5074968;28;20259;-86
2023/04/24 06:31:55;;;;;;;27.60;14.30;;;;;;;;;;5074853;28;20208;-86
2023/04/24 06:34:28;;;;;;;30.30;14.90;;;;;;;;;;5074998;28;20215;-86
2023/04/24 06:36:56;;;;;;;12.17;7.73;;;;;;;;;;5075155;28;20198;-87
2023/04/24 06:39:25;;;;;;;12.20;5.73;;;;;;;;;;5075218;28;20205;-86
2023/04/24 06:41:53;;;;;;;18.00;9.93;;;;;;;;;;5075308;28;20270;-87
2023/04/24 06:44:22;;;;;;;24.43;12.67;;;;;;;;;;5074716;28;20261;-87
2023/04/24 06:46:50;;;;;;;29.27;14.73;;;;;;;;;;5074865;28;20212;-88
2023/04/24 06:49:20;;;;;;;30.23;10.97;;;;;;;;;;5075048;28;20187;-87
2023/04/24 06:51:49;;;;;;;32.87;12.80;;;;;;;;;;5074469;28;20237;-88
2023/04/24 06:54:18;;;;;;;23.03;9.83;;;;;;;;;;5073903;28;20214;-88
2023/04/24 06:56:47;;;;;;;29.03;12.00;;;;;;;;;;5074051;28;20267;-88
2023/04/24 06:59:16;;;;;;;34.27;15.00;;;;;;;;;;5074294;28;20206;-87
2023/04/24 07:01:45;;;;;;;27.17;10.80;;;;;;;;;;5074205;28;20200;-84
2023/04/24 07:04:13;;;;;;;49.87;14.40;;;;;;;;;;5073964;28;20245;-84
2023/04/24 07:06:42;;;;;;;22.87;9.60;;;;;;;;;;5074021;28;20234;-84
2023/04/24 07:09:13;;;;;;;15.80;4.80;;;;;;;;;;5073799;28;20205;-84
2023/04/24 07:11:41;;;;;;;15.33;7.50;;;;;;;;;;5074045;28;20270;-84
2023/04/24 07:14:10;;;;;;;21.80;8.77;;;;;;;;;;5073410;28;20279;-84
2023/04/24 07:16:38;;;;;;;31.60;8.30;;;;;;;;;;5073765;28;20245;-84
2023/04/24 07:19:07;;;;;;;27.77;8.83;;;;;;;;;;5073756;28;20205;-84
2023/04/24 07:21:35;;;;;;;15.23;8.17;;;;;;;;;;5072718;28;20261;-84
2023/04/24 07:24:04;;;;;;;23.53;7.27;;;;;;;;;;5073580;28;20297;-84
2023/04/24 07:26:33;;;;;;;28.60;7.70;;;;;;;;;;5073332;28;20240;-84
2023/04/24 07:29:02;;;;;;;13.50;7.57;;;;;;;;;;5073550;28;20234;-84
2023/04/24 07:31:30;;;;;;;9.13;5.80;;;;;;;;;;5073827;28;20210;-84
2023/04/24 07:33:59;;;;;;;26.40;6.70;;;;;;;;;;5073537;28;20206;-85
2023/04/24 07:36:27;;;;;;;20.27;7.63;;;;;;;;;;5073513;28;20198;-84
2023/04/24 07:38:57;;;;;;;9.77;4.87;;;;;;;;;;5073231;28;20198;-84
2023/04/24 07:41:27;;;;;;;19.57;5.07;;;;;;;;;;5073450;28;20237;-84
2023/04/24 07:43:57;;;;;;;14.30;3.37;;;;;;;;;;5073084;28;20206;-84
2023/04/24 07:46:27;;;;;;;19.97;8.83;;;;;;;;;;5073203;28;20194;-84
2023/04/24 07:48:56;;;;;;;19.73;6.00;;;;;;;;;;5073459;28;20199;-84
2023/04/24 07:51:41;;;;;;;14.60;5.97;;;;;;;;;;5073090;28;20196;-84
2023/04/24 07:54:10;;;;;;;20.60;5.90;;;;;;;;;;5072748;28;20208;-84
2023/04/24 07:56:38;;;;;;;30.07;5.63;;;;;;;;;;5073407;28;20248;-84
2023/04/24 07:59:09;;;;;;;14.07;4.63;;;;;;;;;;5072779;28;20194;-84
2023/04/24 08:01:38;;;;;;;13.97;5.80;;;;;;;;;;5072811;28;20202;-85
2023/04/24 08:04:06;;;;;;;13.20;5.57;;;;;;;;;;5072508;28;20195;-85
2023/04/24 08:06:35;;;;;;;16.73;4.97;;;;;;;;;;5072787;28;20266;-84
2023/04/24 08:09:03;;;;;;;7.43;3.70;;;;;;;;;;5073092;28;20230;-85
2023/04/24 08:11:32;;;;;;;24.47;6.07;;;;;;;;;;5073009;28;20280;-85
2023/04/24 08:14:01;;;;;;;12.90;5.80;;;;;;;;;;5072841;28;20207;-85
2023/04/24 08:16:30;;;;;;;23.17;4.67;;;;;;;;;;5072274;28;20206;-85
2023/04/24 08:18:59;;;;;;;10.03;4.63;;;;;;;;;;5072697;28;20202;-85
2023/04/24 08:21:27;;;;;;;4.57;2.53;;;;;;;;;;5072973;28;20202;-85
2023/04/24 08:23:56;;;;;;;6.37;2.73;;;;;;;;;;5072762;28;20298;-85
2023/04/24 08:26:24;;;;;;;4.30;2.90;;;;;;;;;;5072929;28;20212;-85
2023/04/24 08:28:52;;;;;;;9.43;4.43;;;;;;;;;;5073091;28;20248;-85
2023/04/24 08:31:22;;;;;;;10.63;4.07;;;;;;;;;;5072192;28;20202;-85
2023/04/24 08:33:52;;;;;;;12.80;5.20;;;;;;;;;;5072394;28;20297;-86
2023/04/24 08:36:20;;;;;;;14.63;5.33;;;;;;;;;;5072624;28;20214;-86
2023/04/24 08:38:50;;;;;;;10.27;5.13;;;;;;;;;;5073073;28;20260;-86
2023/04/24 08:41:21;;;;;;;13.57;4.80;;;;;;;;;;5071799;28;20221;-86
2023/04/24 08:43:49;;;;;;;11.57;3.83;;;;;;;;;;5072246;28;20205;-86
2023/04/24 08:46:18;;;;;;;6.53;3.37;;;;;;;;;;5071655;28;20191;-86
2023/04/24 08:48:46;;;;;;;7.30;3.43;;;;;;;;;;5071740;28;20284;-86
2023/04/24 08:51:16;;;;;;;13.37;3.73;;;;;;;;;;5072119;28;20209;-86
2023/04/24 08:53:45;;;;;;;5.70;3.60;;;;;;;;;;5072174;28;20276;-86
2023/04/24 08:56:13;;;;;;;6.43;3.13;;;;;;;;;;5071390;28;20244;-86
2023/04/24 08:58:42;;;;;;;5.97;3.23;;;;;;;;;;5072250;28;20244;-86
2023/04/24 09:01:10;;;;;;;10.27;4.80;;;;;;;;;;5072649;28;20211;-86
2023/04/24 09:03:39;;;;;;;4.00;2.67;;;;;;;;;;5071602;28;20268;-86
2023/04/24 09:06:10;;;;;;;9.40;3.73;;;;;;;;;;5071324;28;20293;-87
2023/04/24 09:08:41;;;;;;;6.27;2.97;;;;;;;;;;5072376;28;20198;-86
2023/04/24 09:11:10;;;;;;;5.50;2.83;;;;;;;;;;5072081;28;20213;-86
2023/04/24 09:13:39;;;;;;;11.27;2.63;;;;;;;;;;5072104;28;20230;-87
2023/04/24 09:16:07;;;;;;;5.07;3.00;;;;;;;;;;5072303;28;20314;-86
2023/04/24 09:18:36;;;;;;;4.73;2.63;;;;;;;;;;5072019;28;20284;-86
2023/04/24 09:21:05;;;;;;;2.03;1.90;;;;;;;;;;5071991;28;20204;-87
2023/04/24 09:23:34;;;;;;;8.50;3.03;;;;;;;;;;5072284;28;20204;-87
2023/04/24 09:26:05;;;;;;;6.43;2.53;;;;;;;;;;5072285;28;20199;-87
2023/04/24 09:28:36;;;;;;;2.83;1.43;;;;;;;;;;5071665;28;20239;-86
2023/04/24 09:31:06;;;;;;;5.83;2.57;;;;;;;;;;5072030;28;20245;-87
2023/04/24 09:33:35;;;;;;;5.17;2.10;;;;;;;;;;5072329;28;20287;-86
2023/04/24 09:36:03;;;;;;;2.30;1.57;;;;;;;;;;5071695;28;20244;-87
2023/04/24 09:38:33;;;;;;;2.93;1.50;;;;;;;;;;5071826;28;20239;-87
2023/04/24 09:41:03;;;;;;;6.00;2.10;;;;;;;;;;5072108;28;20213;-87
2023/04/24 09:43:32;;;;;;;7.97;2.73;;;;;;;;;;5073002;28;20210;-85
2023/04/24 09:46:05;;;;;;;1.97;1.67;;;;;;;;;;5076610;28;20249;-85
2023/04/24 09:48:35;;;;;;;1.63;1.33;;;;;;;;;;5076144;28;20207;-86
2023/04/24 09:51:06;;;;;;;2.40;1.57;;;;;;;;;;5075238;28;20237;-85
2023/04/24 09:53:35;;;;;;;6.50;1.73;;;;;;;;;;5075691;28;20315;-86
2023/04/24 09:56:08;;;;;;;3.77;1.70;;;;;;;;;;5075353;28;20332;-86
2023/04/24 09:58:39;;;;;;;9.83;2.23;;;;;;;;;;5074973;28;20232;-85
2023/04/24 10:01:09;;;;;;;6.03;2.10;;;;;;;;;;5075476;28;20207;-85
2023/04/24 10:03:38;;;;;;;2.33;2.17;;;;;;;;;;5075454;28;20208;-85
2023/04/24 10:06:08;;;;;;;3.20;2.03;;;;;;;;;;5075487;28;20195;-85
2023/04/24 10:08:38;;;;;;;1.00;0.90;;;;;;;;;;5075101;28;20208;-85
2023/04/24 10:11:10;;;;;;;4.43;1.90;;;;;;;;;;5075555;28;20198;-86
2023/04/24 10:13:40;;;;;;;4.77;2.03;;;;;;;;;;5075102;28;20217;-85
2023/04/24 10:16:08;;;;;;;2.30;1.67;;;;;;;;;;5074237;28;20220;-85
2023/04/24 10:18:37;;;;;;;6.60;1.80;;;;;;;;;;5075046;28;20204;-85
2023/04/24 10:21:05;;;;;;;1.77;1.40;;;;;;;;;;5074598;28;20232;-85
2023/04/24 10:23:34;;;;;;;3.07;1.20;;;;;;;;;;5074771;28;20201;-86
2023/04/24 10:26:03;;;;;;;2.13;1.37;;;;;;;;;;5074858;28;20189;-85
2023/04/24 10:28:33;;;;;;;6.80;3.37;;;;;;;;;;5074653;28;20229;-86
2023/04/24 10:31:02;;;;;;;2.60;1.43;;;;;;;;;;5075031;28;20201;-86
2023/04/24 10:33:32;;;;;;;2.17;1.40;;;;;;;;;;5074793;28;20208;-86
2023/04/24 10:36:00;;;;;;;2.97;1.70;;;;;;;;;;5074458;28;20259;-85
2023/04/24 10:38:30;;;;;;;3.97;1.50;;;;;;;;;;5074490;28;20278;-86
2023/04/24 10:41:09;;;;;;;2.50;2.30;;;;;;;;;;5074510;28;20220;-85
2023/04/24 10:43:41;;;;;;;4.70;1.67;;;;;;;;;;5074905;28;20244;-85
2023/04/24 10:46:10;;;;;;;1.97;1.40;;;;;;;;;;5073870;28;20203;-86
2023/04/24 10:48:44;;;;;;;10.00;1.90;;;;;;;;;;5075024;28;20211;-85
2023/04/24 10:51:14;;;;;;;1.33;1.23;;;;;;;;;;5074353;28;20209;-86
2023/04/24 10:53:43;;;;;;;2.60;1.60;;;;;;;;;;5074634;28;20198;-85
2023/04/24 10:56:12;;;;;;;2.20;1.60;;;;;;;;;;5073732;28;20320;-86
2023/04/24 10:58:44;;;;;;;4.03;2.70;;;;;;;;;;5074711;28;20197;-86
2023/04/24 11:01:25;;;;;;;4.33;1.63;;;;;;;;;;5074228;28;20210;-85
2023/04/24 11:03:56;;;;;;;3.20;2.23;;;;;;;;;;5074412;28;20194;-85
2023/04/24 11:06:31;;;;;;;2.03;1.77;;;;;;;;;;5074427;28;20194;-86
2023/04/24 11:09:04;;;;;;;7.07;1.53;;;;;;;;;;5074117;28;20323;-85
2023/04/24 11:11:32;;;;;;;5.17;1.50;;;;;;;;;;5074338;28;20201;-85
2023/04/24 11:14:09;;;;;;;6.37;2.23;;;;;;;;;;5073575;28;20237;-85
2023/04/24 11:16:40;;;;;;;6.57;2.73;;;;;;;;;;5073978;28;20221;-86
2023/04/24 11:19:09;;;;;;;9.43;1.53;;;;;;;;;;5074052;28;20265;-86
2023/04/24 11:21:42;;;;;;;1.93;1.53;;;;;;;;;;5073671;28;20211;-86
2023/04/24 11:24:41;;;;;;;7.17;1.60;;;;;;;;;;5073756;28;20209;-86
2023/04/24 11:27:14;;;;;;;7.80;2.60;;;;;;;;;;4991702;28;20217;-88
2023/04/24 11:29:46;;;;;;;7.83;1.97;;;;;;;;;;5060028;28;20263;-89
2023/04/24 11:32:19;;;;;;;7.63;2.13;;;;;;;;;;5074366;28;20198;-89
2023/04/24 11:34:48;;;;;;;3.30;2.13;;;;;;;;;;5074350;28;20485;-89
2023/04/24 11:37:17;;;;;;;4.93;2.03;;;;;;;;;;5073438;28;20238;-89
2023/04/24 11:39:46;;;;;;;5.50;2.20;;;;;;;;;;5073782;28;20207;-89
2023/04/24 11:42:16;;;;;;;5.07;2.13;;;;;;;;;;5073472;28;20256;-89
2023/04/24 11:44:47;;;;;;;4.57;1.80;;;;;;;;;;5073803;28;20196;-89
2023/04/24 11:47:16;;;;;;;3.40;1.80;;;;;;;;;;5073948;28;20197;-90
2023/04/24 11:49:44;;;;;;;5.30;2.73;;;;;;;;;;5073264;28;20205;-90
2023/04/24 11:52:17;;;;;;;2.43;2.03;;;;;;;;;;5073484;28;20276;-89
2023/04/24 11:54:50;;;;;;;5.83;3.10;;;;;;;;;;5073336;28;20223;-89
2023/04/24 11:57:20;;;;;;;7.70;3.23;;;;;;;;;;5073270;28;20255;-89
2023/04/24 11:59:51;;;;;;;8.73;2.30;;;;;;;;;;5073227;28;20263;-89
2023/04/24 12:02:23;;;;;;;1.67;1.60;;;;;;;;;;5073208;28;20201;-89
2023/04/24 12:04:53;;;;;;;8.93;3.73;;;;;;;;;;5073118;28;20209;-88
2023/04/24 12:07:22;;;;;;;8.87;3.43;;;;;;;;;;5073685;28;20204;-88
2023/04/24 12:09:51;;;;;;;13.57;3.63;;;;;;;;;;5074115;28;20206;-89
2023/04/24 12:12:20;;;;;;;10.50;3.90;;;;;;;;;;5074266;28;20194;-85
2023/04/24 12:14:54;;;;;;;6.77;3.50;;;;;;;;;;5072378;28;20216;-87
2023/04/24 12:17:26;;;;;;;6.00;2.77;;;;;;;;;;5072199;28;20316;-86
2023/04/24 12:20:00;;;;;;;9.33;3.57;;;;;;;;;;5071505;28;20250;-86
2023/04/24 12:22:28;;;;;;;4.73;2.23;;;;;;;;;;5072577;28;20208;-86
2023/04/24 12:24:57;;;;;;;6.13;2.60;;;;;;;;;;5073376;28;20210;-86
2023/04/24 12:27:26;;;;;;;7.03;2.63;;;;;;;;;;5072342;28;20217;-86
2023/04/24 12:29:57;;;;;;;9.47;3.93;;;;;;;;;;5072006;28;20200;-86
2023/04/24 12:32:26;;;;;;;9.00;3.33;;;;;;;;;;5072311;28;20205;-86
2023/04/24 12:34:56;;;;;;;6.73;2.23;;;;;;;;;;5072268;28;20215;-85
2023/04/24 12:37:25;;;;;;;10.40;4.57;;;;;;;;;;5073218;28;20212;-86
2023/04/24 12:40:03;;;;;;;7.67;3.93;;;;;;;;;;5072160;28;20205;-86
2023/04/24 12:42:32;;;;;;;6.83;2.67;;;;;;;;;;5072597;28;20274;-86
2023/04/24 12:45:03;;;;;;;6.63;4.53;;;;;;;;;;5072206;28;20205;-86
2023/04/24 12:47:32;;;;;;;6.00;3.33;;;;;;;;;;5072236;28;20268;-86
2023/04/24 12:50:00;;;;;;;8.80;3.90;;;;;;;;;;5072098;28;20197;-86
2023/04/24 12:52:30;;;;;;;6.80;2.47;;;;;;;;;;5072102;28;20215;-85
2023/04/24 12:54:59;;;;;;;11.70;3.33;;;;;;;;;;5071921;28;20198;-86
2023/04/24 12:57:28;;;;;;;7.10;2.20;;;;;;;;;;5072140;28;20221;-87
2023/04/24 12:59:57;;;;;;;6.60;3.30;;;;;;;;;;5071926;28;20297;-87
2023/04/24 13:02:28;;;;;;;3.40;2.27;;;;;;;;;;5072318;28;20201;-88
2023/04/24 13:04:57;;;;;;;10.03;2.80;;;;;;;;;;5072118;28;20266;-88
2023/04/24 13:07:26;;;;;;;7.43;3.40;;;;;;;;;;5071477;28;20247;-87
2023/04/24 13:09:56;;;;;;;4.53;1.73;;;;;;;;;;5071686;28;20200;-87
2023/04/24 13:12:25;;;;;;;10.73;2.90;;;;;;;;;;5072081;28;20198;-88
2023/04/24 13:14:54;;;;;;;2.57;2.33;;;;;;;;;;5071750;28;20206;-87
2023/04/24 13:17:23;;;;;;;2.90;2.40;;;;;;;;;;5071558;28;20200;-87
2023/04/24 13:19:53;;;;;;;6.40;2.50;;;;;;;;;;5071528;28;20198;-88
2023/04/24 13:22:22;;;;;;;8.17;3.60;;;;;;;;;;5071884;28;20241;-88
2023/04/24 13:24:50;;;;;;;9.70;3.87;;;;;;;;;;5072015;28;20258;-87
2023/04/24 13:27:19;;;;;;;5.83;2.77;;;;;;;;;;5071833;28;20249;-87
2023/04/24 13:29:47;;;;;;;8.40;2.80;;;;;;;;;;5071359;28;20247;-87
2023/04/24 13:32:16;;;;;;;9.80;3.10;;;;;;;;;;5071451;28;20221;-88
2023/04/24 13:34:45;;;;;;;10.90;3.40;;;;;;;;;;5071919;28;20237;-88
2023/04/24 13:37:15;;;;;;;11.20;5.00;;;;;;;;;;5071817;28;20210;-87
2023/04/24 13:39:44;;;;;;;2.83;2.17;;;;;;;;;;5072043;28;20297;-87
2023/04/24 13:42:13;;;;;;;12.20;2.90;;;;;;;;;;5071270;28;20193;-88
2023/04/24 13:44:42;;;;;;;6.53;3.07;;;;;;;;;;5071538;28;20204;-87
2023/04/24 13:47:10;;;;;;;11.13;3.70;;;;;;;;;;5071565;28;20285;-87
2023/04/24 13:49:39;;;;;;;9.17;4.47;;;;;;;;;;5071493;28;20193;-86
2023/04/24 13:52:10;;;;;;;10.03;3.07;;;;;;;;;;5071487;28;20197;-88
2023/04/24 13:54:40;;;;;;;10.53;4.13;;;;;;;;;;5071471;28;20292;-87
2023/04/24 13:57:08;;;;;;;16.13;5.30;;;;;;;;;;5071575;28;20237;-85
2023/04/24 13:59:37;;;;;;;9.47;2.90;;;;;;;;;;5071417;28;20270;-87
2023/04/24 14:02:05;;;;;;;8.03;3.13;;;;;;;;;;5071451;28;20213;-88
2023/04/24 14:04:34;;;;;;;8.27;3.67;;;;;;;;;;5071347;28;20225;-87
2023/04/24 14:07:03;;;;;;;7.53;2.77;;;;;;;;;;5072187;28;20201;-88
2023/04/24 14:09:32;;;;;;;6.20;3.13;;;;;;;;;;5070857;28;20190;-87
2023/04/24 14:12:03;;;;;;;15.63;3.60;;;;;;;;;;5071634;28;20202;-87
2023/04/24 14:14:31;;;;;;;12.23;4.43;;;;;;;;;;5071279;28;20255;-88
2023/04/24 14:17:00;;;;;;;7.43;2.97;;;;;;;;;;5071310;28;20190;-87
2023/04/24 14:19:31;;;;;;;7.63;3.53;;;;;;;;;;5071504;28;20241;-87
2023/04/24 14:22:00;;;;;;;13.70;5.50;;;;;;;;;;5071996;28;20232;-87
2023/04/24 14:24:29;;;;;;;12.83;3.60;;;;;;;;;;5070554;28;20194;-87
2023/04/24 14:26:57;;;;;;;8.93;2.77;;;;;;;;;;5070684;28;20222;-87
2023/04/24 14:29:30;;;;;;;9.10;3.23;;;;;;;;;;5070943;28;20229;-87
2023/04/24 14:32:00;;;;;;;14.67;3.40;;;;;;;;;;5074053;28;20201;-87
2023/04/24 14:34:29;;;;;;;6.57;4.07;;;;;;;;;;5075074;28;20303;-87
2023/04/24 14:36:58;;;;;;;6.83;3.07;;;;;;;;;;5074746;28;20234;-87
2023/04/24 14:39:27;;;;;;;3.87;2.73;;;;;;;;;;5074727;28;20217;-87
2023/04/24 14:41:55;;;;;;;10.50;3.87;;;;;;;;;;5074258;28;20194;-87
2023/04/24 14:44:24;;;;;;;9.07;4.00;;;;;;;;;;5074433;28;20206;-86
2023/04/24 14:46:54;;;;;;;11.27;3.37;;;;;;;;;;5074363;28;20193;-87
2023/04/24 14:49:22;;;;;;;5.07;2.83;;;;;;;;;;5074284;28;20200;-86
2023/04/24 14:51:52;;;;;;;9.40;3.33;;;;;;;;;;5073904;28;20225;-87
2023/04/24 14:54:22;;;;;;;5.07;2.60;;;;;;;;;;5074290;28;20204;-87